createdAt,value
2024-02-20T00:02:04.834Z,63.42
2024-02-20T00:04:32.026Z,80.47
2024-02-20T00:06:59.115Z,59.78
2024-02-20T00:09:26.175Z,33.90
2024-02-20T00:11:52.826Z,45.70
2024-02-20T00:14:19.630Z,48.33
2024-02-20T00:16:47.689Z,43.35
2024-02-20T00:19:14.937Z,59.15
2024-02-20T00:21:43.280Z,59.35
2024-02-20T00:24:10.380Z,72.15
2024-02-20T00:26:37.100Z,74.45
2024-02-20T00:29:03.850Z,83.53
2024-02-20T00:31:33.751Z,65.28
2024-02-20T00:34:01.671Z,72.40
2024-02-20T00:36:28.633Z,59.05
2024-02-20T00:38:58.451Z,70.97
2024-02-20T00:41:25.953Z,76.40
2024-02-20T00:43:52.758Z,86.35
2024-02-20T00:46:24.083Z,101.50
2024-02-20T00:48:56.906Z,81.20
2024-02-20T00:51:23.853Z,131.23
2024-02-20T00:53:50.936Z,110.47
2024-02-20T00:56:17.786Z,141.57
2024-02-20T00:58:45.648Z,167.77
2024-02-20T01:01:15.885Z,139.63
2024-02-20T01:03:44.298Z,137.90
2024-02-20T01:06:12.033Z,143.05
2024-02-20T01:08:40.499Z,160.88
2024-02-20T01:11:07.893Z,146.25
2024-02-20T01:13:35.356Z,127.72
2024-02-20T01:16:02.401Z,127.35
2024-02-20T01:18:29.488Z,129.35
2024-02-20T01:20:56.442Z,188.40
2024-02-20T01:23:23.648Z,113.50
2024-02-20T01:25:50.334Z,143.45
2024-02-20T01:28:17.338Z,95.30
2024-02-20T01:30:45.157Z,99.35
2024-02-20T01:33:12.522Z,118.20
2024-02-20T01:35:39.856Z,124.70
2024-02-20T01:38:06.947Z,114.95
2024-02-20T01:40:34.084Z,101.10
2024-02-20T01:43:02.501Z,112.93
2024-02-20T01:45:31.184Z,104.32
2024-02-20T01:48:02.023Z,195.10
2024-02-20T01:50:31.832Z,144.68
2024-02-20T01:52:58.715Z,109.93
2024-02-20T01:55:26.030Z,122.55
2024-02-20T01:57:52.881Z,123.10
2024-02-20T02:00:19.864Z,121.32
2024-02-20T02:02:47.301Z,103.18
2024-02-20T02:05:14.253Z,126.68
2024-02-20T02:07:41.546Z,74.63
2024-02-20T02:10:09.184Z,76.32
2024-02-20T02:12:36.013Z,133.43
2024-02-20T02:15:02.956Z,116.68
2024-02-20T02:17:29.921Z,83.38
2024-02-20T02:19:56.899Z,69.20
2024-02-20T02:22:28.130Z,88.87
2024-02-20T02:24:54.840Z,119.00
2024-02-20T02:27:21.581Z,65.80
2024-02-20T02:29:48.403Z,70.25
2024-02-20T02:32:15.277Z,95.68
2024-02-20T02:34:41.939Z,80.32
2024-02-20T02:37:08.754Z,74.25
2024-02-20T02:39:35.320Z,66.60
2024-02-20T02:42:02.106Z,42.58
2024-02-20T02:44:29.004Z,47.72
2024-02-20T02:46:55.786Z,49.38
2024-02-20T02:49:22.539Z,57.28
2024-02-20T02:51:49.338Z,72.63
2024-02-20T02:54:16.234Z,68.82
2024-02-20T02:56:43.262Z,81.45
2024-02-20T02:59:11.005Z,98.53
2024-02-20T03:01:37.982Z,91.97
2024-02-20T03:04:06.207Z,92.47
2024-02-20T03:06:41.585Z,85.10
2024-02-20T03:09:14.485Z,90.53
2024-02-20T03:11:41.555Z,73.93
2024-02-20T03:14:09.909Z,88.15
2024-02-20T03:16:36.775Z,67.35
2024-02-20T03:19:05.305Z,57.95
2024-02-20T03:21:35.296Z,51.80
2024-02-20T03:24:01.956Z,61.28
2024-02-20T03:26:28.715Z,47.17
2024-02-20T03:28:55.568Z,52.38
2024-02-20T03:31:22.379Z,51.70
2024-02-20T03:33:49.239Z,57.22
2024-02-20T03:36:16.266Z,46.42
2024-02-20T03:38:43.083Z,44.58
2024-02-20T03:41:11.037Z,34.95
2024-02-20T03:43:38.043Z,38.08
2024-02-20T03:46:05.217Z,30.77
2024-02-20T03:48:32.345Z,25.05
2024-02-20T03:50:59.305Z,30.48
2024-02-20T03:53:26.254Z,26.70
2024-02-20T03:55:53.034Z,20.65
2024-02-20T03:58:20.183Z,18.75
2024-02-20T04:00:46.931Z,24.52
2024-02-20T04:03:13.904Z,22.38
2024-02-20T04:05:41.321Z,22.92
2024-02-20T04:08:08.281Z,26.33
2024-02-20T04:10:35.213Z,24.25
2024-02-20T04:13:03.156Z,25.35
2024-02-20T04:15:30.020Z,23.17
2024-02-20T04:17:56.960Z,25.30
2024-02-20T04:20:23.951Z,28.98
2024-02-20T04:22:50.704Z,30.98
2024-02-20T04:25:17.625Z,26.65
2024-02-20T04:27:46.526Z,25.17
2024-02-20T04:30:13.527Z,25.02
2024-02-20T04:32:40.619Z,29.75
2024-02-20T04:35:07.966Z,29.92
2024-02-20T04:37:35.255Z,26.95
2024-02-20T04:40:02.237Z,29.90
2024-02-20T04:42:32.173Z,25.27
2024-02-20T04:44:58.874Z,28.23
2024-02-20T04:47:26.050Z,28.00
2024-02-20T04:49:53.849Z,25.20
2024-02-20T04:52:20.914Z,26.40
2024-02-20T04:54:47.814Z,24.80
2024-02-20T04:57:14.634Z,28.50
2024-02-20T04:59:45.539Z,24.17
2024-02-20T05:02:14.586Z,23.00
2024-02-20T05:04:41.467Z,25.23
2024-02-20T05:07:08.735Z,30.92
2024-02-20T05:09:35.522Z,26.55
2024-02-20T05:12:02.215Z,29.75
2024-02-20T05:14:29.126Z,25.70
2024-02-20T05:16:56.055Z,24.15
2024-02-20T05:19:23.038Z,32.17
2024-02-20T05:21:49.881Z,24.58
2024-02-20T05:24:16.572Z,24.08
2024-02-20T05:26:43.296Z,26.30
2024-02-20T05:29:10.033Z,23.20
2024-02-20T05:31:37.022Z,26.15
2024-02-20T05:34:04.147Z,25.20
2024-02-20T05:36:32.642Z,23.25
2024-02-20T05:39:02.974Z,24.38
2024-02-20T05:41:31.539Z,22.15
2024-02-20T05:44:00.031Z,20.83
2024-02-20T05:46:28.228Z,18.92
2024-02-20T05:48:56.041Z,23.25
2024-02-20T05:51:24.822Z,21.10
2024-02-20T05:53:52.533Z,19.35
2024-02-20T05:56:20.266Z,16.35
2024-02-20T05:58:47.490Z,16.67
2024-02-20T06:01:16.378Z,13.70
2024-02-20T06:03:44.775Z,18.02
2024-02-20T06:06:13.099Z,13.15
2024-02-20T06:08:46.395Z,13.18
2024-02-20T06:11:19.023Z,16.35
2024-02-20T06:13:46.535Z,12.57
2024-02-20T06:16:13.446Z,14.65
2024-02-20T06:18:40.393Z,10.15
2024-02-20T06:21:10.217Z,9.93
2024-02-20T06:23:41.078Z,9.85
2024-02-20T06:26:11.408Z,11.68
2024-02-20T06:28:40.498Z,9.40
2024-02-20T06:31:08.871Z,9.50
2024-02-20T06:33:36.192Z,14.40
2024-02-20T06:36:04.873Z,11.00
2024-02-20T06:38:34.787Z,11.95
2024-02-20T06:41:02.062Z,11.20
2024-02-20T06:43:29.499Z,10.48
2024-02-20T06:45:57.275Z,9.68
2024-02-20T06:48:24.442Z,12.23
2024-02-20T06:50:52.748Z,8.15
2024-02-20T06:53:19.573Z,10.15
2024-02-20T06:55:46.937Z,9.05
2024-02-20T06:58:13.789Z,9.05
2024-02-20T07:00:40.792Z,9.23
2024-02-20T07:03:08.532Z,7.57
2024-02-20T07:05:36.047Z,7.93
2024-02-20T07:08:03.838Z,6.65
2024-02-20T07:10:31.519Z,7.88
2024-02-20T07:13:01.800Z,8.40
2024-02-20T07:15:28.611Z,7.07
2024-02-20T07:17:55.470Z,6.68
2024-02-20T07:20:23.989Z,8.00
2024-02-20T07:22:53.281Z,7.28
2024-02-20T07:25:21.220Z,10.75
2024-02-20T07:27:48.417Z,7.25
2024-02-20T07:30:16.019Z,6.68
2024-02-20T07:32:46.066Z,7.13
2024-02-20T07:35:15.272Z,8.00
2024-02-20T07:37:42.820Z,8.32
2024-02-20T07:40:10.928Z,5.53
2024-02-20T07:42:39.486Z,6.03
2024-02-20T07:45:07.795Z,6.10
2024-02-20T07:47:35.511Z,6.97
2024-02-20T07:50:03.058Z,7.93
2024-02-20T07:52:30.261Z,10.55
2024-02-20T07:54:57.157Z,6.63
2024-02-20T07:57:23.973Z,8.45
2024-02-20T07:59:52.965Z,6.95
2024-02-20T08:02:19.892Z,5.70
2024-02-20T08:04:47.362Z,7.45
2024-02-20T08:07:14.524Z,10.68
2024-02-20T08:09:41.364Z,7.53
2024-02-20T08:12:08.246Z,8.02
2024-02-20T08:14:35.601Z,6.30
2024-02-20T08:17:02.450Z,8.30
2024-02-20T08:19:31.543Z,6.47
2024-02-20T08:21:58.466Z,5.65
2024-02-20T08:24:25.234Z,5.38
2024-02-20T08:26:52.060Z,6.47
2024-02-20T08:29:19.013Z,6.43
2024-02-20T08:31:45.968Z,8.65
2024-02-20T08:34:13.120Z,6.13
2024-02-20T08:36:41.285Z,6.90
2024-02-20T08:39:08.135Z,6.70
2024-02-20T08:41:35.122Z,5.97
2024-02-20T08:44:01.936Z,8.32
2024-02-20T08:46:28.684Z,7.85
2024-02-20T08:48:55.655Z,9.20
2024-02-20T08:51:22.372Z,8.48
2024-02-20T08:53:49.297Z,8.38
2024-02-20T08:56:16.858Z,9.88
2024-02-20T08:58:44.201Z,7.72
2024-02-20T09:01:13.891Z,7.30
2024-02-20T09:03:40.688Z,8.38
2024-02-20T09:06:07.718Z,8.15
2024-02-20T09:08:34.625Z,7.93
2024-02-20T09:11:05.451Z,4.75
2024-02-20T09:13:36.005Z,4.78
2024-02-20T09:16:04.069Z,5.03
2024-02-20T09:18:35.248Z,4.40
2024-02-20T09:21:02.600Z,4.05
2024-02-20T09:23:29.400Z,4.20
2024-02-20T09:25:56.191Z,5.75
2024-02-20T09:28:23.016Z,5.18
2024-02-20T09:30:49.666Z,4.25
2024-02-20T09:33:19.543Z,5.07
2024-02-20T09:35:46.351Z,6.55
2024-02-20T09:38:14.287Z,3.67
2024-02-20T09:40:47.577Z,3.72
2024-02-20T09:43:29.252Z,4.68
2024-02-20T09:46:00.748Z,5.43
2024-02-20T09:48:29.246Z,5.30
2024-02-20T09:50:57.460Z,7.63
2024-02-20T09:53:24.904Z,6.75
2024-02-20T09:55:54.743Z,5.60
2024-02-20T09:58:24.707Z,5.63
2024-02-20T10:00:54.848Z,5.15
2024-02-20T10:03:21.757Z,5.57
2024-02-20T10:05:48.603Z,5.70
2024-02-20T10:08:15.993Z,6.80
2024-02-20T10:10:46.578Z,5.93
2024-02-20T10:13:13.719Z,9.65
2024-02-20T10:15:40.764Z,5.38
2024-02-20T10:18:08.691Z,5.97
2024-02-20T10:20:36.670Z,8.93
2024-02-20T10:23:14.933Z,5.55
2024-02-20T10:25:42.100Z,5.88
2024-02-20T10:28:11.096Z,5.13
2024-02-20T10:30:39.051Z,6.82
2024-02-20T10:33:06.124Z,6.72
2024-02-20T10:35:33.317Z,12.04
2024-02-20T10:38:02.488Z,5.60
2024-02-20T10:40:30.326Z,5.70
2024-02-20T10:43:00.835Z,6.93
2024-02-20T10:45:28.941Z,5.70
2024-02-20T10:48:00.163Z,8.55
2024-02-20T10:50:28.058Z,6.53
2024-02-20T10:52:55.628Z,6.07
2024-02-20T10:55:31.459Z,5.40
2024-02-20T10:58:04.780Z,6.22
2024-02-20T11:00:35.690Z,5.18
2024-02-20T11:03:06.450Z,5.28
2024-02-20T11:05:34.237Z,5.65
2024-02-20T11:08:09.074Z,6.43
2024-02-20T11:10:37.766Z,6.55
2024-02-20T11:13:16.327Z,5.00
2024-02-20T11:15:43.549Z,5.65
2024-02-20T11:18:18.396Z,5.65
2024-02-20T11:20:46.011Z,5.25
2024-02-20T11:23:13.171Z,6.07
2024-02-20T11:25:43.216Z,5.40
2024-02-20T11:28:17.781Z,5.72
2024-02-20T11:30:49.049Z,5.65
2024-02-20T11:33:18.734Z,5.78
2024-02-20T11:35:47.763Z,7.22
2024-02-20T11:38:18.103Z,7.20
2024-02-20T11:40:45.151Z,4.85
2024-02-20T11:43:12.617Z,5.13
2024-02-20T11:45:39.517Z,5.22
2024-02-20T11:48:06.810Z,6.80
2024-02-20T11:50:35.478Z,6.05
2024-02-20T11:53:10.642Z,4.90
2024-02-20T11:55:40.896Z,5.47
2024-02-20T11:58:08.763Z,6.18
2024-02-20T12:00:38.466Z,6.38
2024-02-20T12:03:09.124Z,4.63
2024-02-20T12:05:39.205Z,5.53
2024-02-20T12:08:14.998Z,4.90
2024-02-20T12:10:42.911Z,7.18
2024-02-20T12:13:17.924Z,4.97
2024-02-20T12:18:25.154Z,6.18
2024-02-20T12:21:12.577Z,5.63
2024-02-20T12:23:40.428Z,4.72
2024-02-20T12:26:11.760Z,4.47
2024-02-20T12:28:40.128Z,5.70
2024-02-20T12:31:07.830Z,5.47
2024-02-20T12:33:35.190Z,7.15
2024-02-20T12:36:03.051Z,4.55
2024-02-20T12:38:30.257Z,3.55
2024-02-20T12:40:59.930Z,4.32
2024-02-20T12:43:27.398Z,3.80
2024-02-20T12:45:55.251Z,5.55
2024-02-20T12:48:22.156Z,4.25
2024-02-20T12:50:48.888Z,4.32
2024-02-20T12:53:15.684Z,6.10
2024-02-20T12:55:42.452Z,3.08
2024-02-20T12:58:10.901Z,3.97
2024-02-20T13:00:38.610Z,5.47
2024-02-20T13:03:06.623Z,4.03
2024-02-20T13:05:35.192Z,3.22
2024-02-20T13:08:06.061Z,4.30
2024-02-20T13:10:33.003Z,3.65
2024-02-20T13:13:00.989Z,3.92
2024-02-20T13:15:28.072Z,2.92
2024-02-20T13:17:56.747Z,4.15
2024-02-20T13:20:26.751Z,3.70
2024-02-20T13:22:53.529Z,3.95
2024-02-20T13:25:20.387Z,4.22
2024-02-20T13:27:48.949Z,5.20
2024-02-20T13:30:16.439Z,3.92
2024-02-20T13:32:46.024Z,4.00
2024-02-20T13:35:19.378Z,3.65
2024-02-20T13:37:50.325Z,4.63
2024-02-20T13:40:18.220Z,5.72
2024-02-20T13:42:45.422Z,7.65
2024-02-20T13:45:12.187Z,4.55
2024-02-20T13:47:39.121Z,5.07
2024-02-20T13:50:06.559Z,4.18
2024-02-20T13:52:33.551Z,4.00
2024-02-20T13:55:00.601Z,6.65
2024-02-20T13:57:27.541Z,6.40
2024-02-20T13:59:54.592Z,4.63
2024-02-20T14:02:21.409Z,4.93
2024-02-20T14:04:49.226Z,4.60
2024-02-20T14:07:16.839Z,4.57
2024-02-20T14:09:44.070Z,5.97
2024-02-20T14:12:11.583Z,4.28
2024-02-20T14:14:38.455Z,5.70
2024-02-20T14:17:05.489Z,7.13
2024-02-20T14:19:32.726Z,5.65
2024-02-20T14:21:59.940Z,4.82
2024-02-20T14:24:26.847Z,6.47
2024-02-20T14:26:53.712Z,5.32
2024-02-20T14:29:21.736Z,5.18
2024-02-20T14:31:49.400Z,6.28
2024-02-20T14:34:16.818Z,7.20
2024-02-20T14:36:44.180Z,9.18
2024-02-20T14:39:11.900Z,8.52
2024-02-20T14:41:41.440Z,6.95
2024-02-20T14:44:08.379Z,6.75
2024-02-20T14:46:35.695Z,7.30
2024-02-20T14:49:02.469Z,9.52
2024-02-20T14:51:29.376Z,7.63
2024-02-20T14:53:56.321Z,7.97
2024-02-20T14:56:23.141Z,8.43
2024-02-20T14:58:50.011Z,10.38
2024-02-20T15:01:26.574Z,9.15
2024-02-20T15:03:54.173Z,8.13
2024-02-20T15:06:22.972Z,12.73
2024-02-20T15:08:50.011Z,10.68
2024-02-20T15:11:18.375Z,11.35
2024-02-20T15:13:45.302Z,12.57
2024-02-20T15:16:13.751Z,13.90
2024-02-20T15:18:40.727Z,14.18
2024-02-20T15:21:07.583Z,12.77
2024-02-20T15:23:34.816Z,13.13
2024-02-20T15:26:08.021Z,25.85
2024-02-20T15:28:36.072Z,17.25
2024-02-20T15:31:04.265Z,12.30
2024-02-20T15:33:34.959Z,12.70
2024-02-20T15:36:02.761Z,14.90
2024-02-20T15:38:29.657Z,17.17
2024-02-20T15:40:56.667Z,13.23
2024-02-20T15:43:24.130Z,11.32
2024-02-20T15:45:51.041Z,13.80
2024-02-20T15:48:18.440Z,11.32
2024-02-20T15:50:47.467Z,12.70
2024-02-20T15:53:16.953Z,10.13
2024-02-20T15:55:47.904Z,13.73
2024-02-20T15:58:16.338Z,11.13
2024-02-20T16:00:44.603Z,10.68
2024-02-20T16:03:12.389Z,12.90
2024-02-20T16:05:40.062Z,10.95
2024-02-20T16:08:08.875Z,10.43
2024-02-20T16:10:38.782Z,9.68
2024-02-20T16:13:06.343Z,8.38
2024-02-20T16:15:33.291Z,8.93
2024-02-20T16:18:01.348Z,8.02
2024-02-20T16:20:29.561Z,9.13
2024-02-20T16:22:57.411Z,9.80
2024-02-20T16:25:25.213Z,7.75
2024-02-20T16:27:52.051Z,8.95
2024-02-20T16:30:18.802Z,10.98
2024-02-20T16:32:45.984Z,10.05
2024-02-20T16:35:15.177Z,9.32
2024-02-20T16:37:42.432Z,11.95
2024-02-20T16:40:10.939Z,8.60
2024-02-20T16:42:38.307Z,7.10
2024-02-20T16:45:05.902Z,7.40
2024-02-20T16:47:34.750Z,10.45
2024-02-20T16:50:01.752Z,9.18
2024-02-20T16:52:29.489Z,8.93
2024-02-20T16:54:57.548Z,10.52
2024-02-20T16:57:24.380Z,8.60
2024-02-20T16:59:53.002Z,9.27
2024-02-20T17:02:20.311Z,8.95
2024-02-20T17:04:48.100Z,8.77
2024-02-20T17:07:18.043Z,8.18
2024-02-20T17:09:50.885Z,6.75
2024-02-20T17:12:17.769Z,8.00
2024-02-20T17:14:45.228Z,7.93
2024-02-20T17:17:12.032Z,7.65
2024-02-20T17:19:39.520Z,8.50
2024-02-20T17:22:06.717Z,8.77
2024-02-20T17:24:33.627Z,7.30
2024-02-20T17:27:00.370Z,6.20
2024-02-20T17:29:28.776Z,7.40
2024-02-20T17:31:56.364Z,8.93
2024-02-20T17:34:24.134Z,7.07
2024-02-20T17:36:52.273Z,9.10
2024-02-20T17:39:19.066Z,9.15
2024-02-20T17:41:45.802Z,9.55
2024-02-20T17:44:12.515Z,10.27
2024-02-20T17:46:39.804Z,13.30
2024-02-20T17:49:06.800Z,10.02
2024-02-20T17:51:33.982Z,11.55
2024-02-20T17:54:00.841Z,8.50
2024-02-20T17:56:28.080Z,11.57
2024-02-20T17:58:54.891Z,12.48
2024-02-20T18:01:22.812Z,9.82
2024-02-20T18:03:50.577Z,9.35
2024-02-20T18:06:18.346Z,9.63
2024-02-20T18:08:45.255Z,8.98
2024-02-20T18:11:15.580Z,9.85
2024-02-20T18:13:42.566Z,10.25
2024-02-20T18:16:14.510Z,12.20
2024-02-20T18:18:41.945Z,12.75
2024-02-20T18:21:08.851Z,11.00
2024-02-20T18:23:36.724Z,11.70
2024-02-20T18:26:04.863Z,10.85
2024-02-20T18:28:32.155Z,11.02
2024-02-20T18:30:59.292Z,10.38
2024-02-20T18:33:26.126Z,10.50
2024-02-20T18:35:53.004Z,10.77
2024-02-20T18:38:19.836Z,11.27
2024-02-20T18:40:46.700Z,9.68
2024-02-20T18:43:13.982Z,13.35
2024-02-20T18:45:40.814Z,8.80
2024-02-20T18:48:10.904Z,9.48
2024-02-20T18:50:38.984Z,11.05
2024-02-20T18:53:05.979Z,11.60
2024-02-20T18:55:32.780Z,12.88
2024-02-20T18:57:59.613Z,12.10
2024-02-20T19:00:26.528Z,10.77
2024-02-20T19:02:53.983Z,10.98
2024-02-20T19:05:20.968Z,12.98
2024-02-20T19:07:47.670Z,16.77
2024-02-20T19:10:15.205Z,11.77
2024-02-20T19:12:41.898Z,10.52
2024-02-20T19:15:09.408Z,12.60
2024-02-20T19:17:36.494Z,12.07
2024-02-20T19:20:03.528Z,11.27
2024-02-20T19:22:32.825Z,9.60
2024-02-20T19:25:01.748Z,13.10
2024-02-20T19:27:28.359Z,10.95
2024-02-20T19:29:57.997Z,10.13
2024-02-20T19:32:28.309Z,11.45
2024-02-20T19:34:55.210Z,8.70
2024-02-20T19:37:24.072Z,10.70
2024-02-20T19:39:50.952Z,9.80
2024-02-20T19:42:19.576Z,9.88
2024-02-20T19:44:46.815Z,9.23
2024-02-20T19:47:13.540Z,8.93
2024-02-20T19:49:47.874Z,7.75
2024-02-20T19:52:19.032Z,9.65
2024-02-20T19:54:46.843Z,8.27
2024-02-20T19:57:14.577Z,8.82
2024-02-20T19:59:41.713Z,7.18
2024-02-20T20:02:08.860Z,8.50
2024-02-20T20:04:36.845Z,9.50
2024-02-20T20:07:03.907Z,10.07
2024-02-20T20:09:30.656Z,8.90
2024-02-20T20:11:58.167Z,7.80
2024-02-20T20:14:25.276Z,8.98
2024-02-20T20:16:52.416Z,9.18
2024-02-20T20:19:21.004Z,7.32
2024-02-20T20:21:49.486Z,7.45
2024-02-20T20:24:19.063Z,7.32
2024-02-20T20:26:46.986Z,9.50
2024-02-20T20:29:14.129Z,6.85
2024-02-20T20:31:42.316Z,8.73
2024-02-20T20:34:10.559Z,6.88
2024-02-20T20:36:38.765Z,7.78
2024-02-20T20:39:06.831Z,8.40
2024-02-20T20:41:35.653Z,8.80
2024-02-20T20:44:02.722Z,6.97
2024-02-20T20:46:29.723Z,8.43
2024-02-20T20:48:56.595Z,7.68
2024-02-20T20:51:23.375Z,7.25
2024-02-20T20:53:50.013Z,7.28
2024-02-20T20:56:16.661Z,8.75
2024-02-20T20:58:43.641Z,8.85
2024-02-20T21:01:10.699Z,8.68
2024-02-20T21:03:37.682Z,7.63
2024-02-20T21:06:04.782Z,9.07
2024-02-20T21:08:31.801Z,9.48
2024-02-20T21:10:59.015Z,12.18
2024-02-20T21:13:27.202Z,8.55
2024-02-20T21:15:54.386Z,9.38
2024-02-20T21:18:21.961Z,10.55
2024-02-20T21:20:49.036Z,12.32
2024-02-20T21:23:19.408Z,9.85
2024-02-20T21:25:49.466Z,8.98
2024-02-20T21:28:16.403Z,11.18
2024-02-20T21:30:46.368Z,8.88
2024-02-20T21:33:13.660Z,7.47
2024-02-20T21:35:40.654Z,9.10
2024-02-20T21:38:08.381Z,8.25
2024-02-20T21:40:36.911Z,8.23
2024-02-20T21:43:04.011Z,9.10
2024-02-20T21:45:30.838Z,8.52
2024-02-20T21:47:57.661Z,9.25
2024-02-20T21:50:24.644Z,11.27
2024-02-20T21:52:52.631Z,8.77
2024-02-20T21:55:20.152Z,8.48
2024-02-20T21:57:47.778Z,9.50
2024-02-20T22:00:15.298Z,11.00
2024-02-20T22:02:42.356Z,10.73
2024-02-20T22:05:09.640Z,12.50
2024-02-20T22:07:36.965Z,11.40
2024-02-20T22:10:04.272Z,10.98
2024-02-20T22:12:30.978Z,11.13
2024-02-20T22:14:59.909Z,11.10
2024-02-20T22:17:26.866Z,12.75
2024-02-20T22:19:53.751Z,10.90
2024-02-20T22:22:20.803Z,8.98
2024-02-20T22:24:47.629Z,13.50
2024-02-20T22:27:14.446Z,12.07
2024-02-20T22:29:41.114Z,11.30
2024-02-20T22:32:10.946Z,13.10
2024-02-20T22:34:38.126Z,12.98
2024-02-20T22:37:05.004Z,13.75
2024-02-20T22:39:31.922Z,14.60
2024-02-20T22:41:59.084Z,16.33
2024-02-20T22:44:25.853Z,15.80
2024-02-20T22:46:52.713Z,11.40
2024-02-20T22:49:19.633Z,13.27
2024-02-20T22:51:46.472Z,12.60
2024-02-20T22:54:13.318Z,11.70
2024-02-20T22:56:40.251Z,12.70
2024-02-20T22:59:07.452Z,10.23
2024-02-20T23:01:34.995Z,11.20
2024-02-20T23:04:02.036Z,8.20
2024-02-20T23:06:29.009Z,11.02
2024-02-20T23:08:55.924Z,8.90
2024-02-20T23:11:23.115Z,9.07
2024-02-20T23:13:49.931Z,11.02
2024-02-20T23:16:17.082Z,9.20
2024-02-20T23:18:43.896Z,9.32
2024-02-20T23:21:13.484Z,9.80
2024-02-20T23:23:40.235Z,9.63
2024-02-20T23:26:07.004Z,10.45
2024-02-20T23:28:35.245Z,9.88
2024-02-20T23:31:04.097Z,11.50
2024-02-20T23:33:31.041Z,11.32
2024-02-20T23:35:57.900Z,14.02
2024-02-20T23:38:24.710Z,14.77
2024-02-20T23:40:53.355Z,14.73
2024-02-20T23:43:20.144Z,16.73
2024-02-20T23:45:47.200Z,17.23
2024-02-20T23:48:14.037Z,15.52
2024-02-20T23:50:40.743Z,17.48
2024-02-20T23:53:07.520Z,20.90
2024-02-20T23:55:34.292Z,18.38
2024-02-20T23:58:00.967Z,17.52
